Main page
METAR-TAF:

METAR-TAF

Airports :

Wick, Scotland

Wick Airport

latitude: 58-27N, longitude: 003-05W, elevation: 39 m

Current weather observation

The report was made 12 minutes ago, at 13:20 UTC
Wind 7 kt from the North/Northwest
Temperature 12°C
Humidity 94%
Pressure 1004 hPa
Visibility 10 km or more

METAR: EGPC 221320Z AUTO 34007KT 9999 FEW037/// 12/11 Q1004

Time: 14:32 (13:32 UTC)

Forecast

The report was made 2 hours and 33 minutes ago, at 10:59 UTC
Forecast valid from 22 at 12 UTC to 22 at 21 UTC
Wind 7 kt from the North/Northeast
Visibility 10 km or more
Scattered clouds at a height of 1000 ft
Temporary
from 22 at 12 UTC to 22 at 21 UTC
Visibility: 6000 m
Broken clouds at a height of 800 ft
rain showers

TAF: EGPC 221059Z 2212/2221 03007KT 9999 SCT010 TEMPO 2212/2221 6000 SHRA BKN008

Weather observations and forecasts of more than 4000 airports (METAR and TAF reports).

The available stations are represented by yellow and red dots on the map.

Hover mouse over dot to see the name of the station.

Then click to see weather observations and forecasts.

To change the map : click on the green buttons with a black cross to zoom in, on the green button with a dash to zoom out, or on the green arrows for adjacent maps.


METAR-TAF: